sensor_id;sensor_type;location;lat;lon;timestamp;P1;durP1;ratioP1;P2;durP2;ratioP2
938;SDS011;456;53.584;9.968;2023-08-31T00:01:46;3.53;;;3.23;;
938;SDS011;456;53.584;9.968;2023-08-31T00:04:13;3.60;;;3.30;;
938;SDS011;456;53.584;9.968;2023-08-31T00:06:42;4.03;;;3.73;;
938;SDS011;456;53.584;9.968;2023-08-31T00:09:11;3.90;;;3.37;;
938;SDS011;456;53.584;9.968;2023-08-31T00:11:37;3.17;;;2.87;;
938;SDS011;456;53.584;9.968;2023-08-31T00:14:03;3.60;;;3.30;;
938;SDS011;456;53.584;9.968;2023-08-31T00:16:29;3.87;;;3.57;;
938;SDS011;456;53.584;9.968;2023-08-31T00:18:58;3.43;;;3.23;;
938;SDS011;456;53.584;9.968;2023-08-31T00:21:24;3.60;;;3.30;;
938;SDS011;456;53.584;9.968;2023-08-31T00:23:50;2.90;;;2.70;;
938;SDS011;456;53.584;9.968;2023-08-31T00:26:15;3.47;;;3.17;;
938;SDS011;456;53.584;9.968;2023-08-31T00:28:41;4.73;;;3.50;;
938;SDS011;456;53.584;9.968;2023-08-31T00:31:10;3.23;;;2.93;;
938;SDS011;456;53.584;9.968;2023-08-31T00:33:39;3.30;;;3.00;;
938;SDS011;456;53.584;9.968;2023-08-31T00:36:05;3.60;;;3.10;;
938;SDS011;456;53.584;9.968;2023-08-31T00:38:30;3.07;;;2.77;;
938;SDS011;456;53.584;9.968;2023-08-31T00:40:56;3.37;;;3.07;;
938;SDS011;456;53.584;9.968;2023-08-31T00:43:22;3.30;;;3.07;;
938;SDS011;456;53.584;9.968;2023-08-31T00:45:49;3.27;;;2.83;;
938;SDS011;456;53.584;9.968;2023-08-31T00:48:16;4.43;;;2.90;;
938;SDS011;456;53.584;9.968;2023-08-31T00:50:43;2.90;;;2.63;;
938;SDS011;456;53.584;9.968;2023-08-31T00:53:10;2.80;;;2.60;;
938;SDS011;456;53.584;9.968;2023-08-31T00:55:35;2.47;;;2.27;;
938;SDS011;456;53.584;9.968;2023-08-31T00:58:01;2.70;;;2.50;;
938;SDS011;456;53.584;9.968;2023-08-31T01:00:39;2.47;;;2.27;;
938;SDS011;456;53.584;9.968;2023-08-31T01:03:12;2.53;;;2.20;;
938;SDS011;456;53.584;9.968;2023-08-31T01:05:50;2.73;;;2.50;;
938;SDS011;456;53.584;9.968;2023-08-31T01:08:39;3.00;;;2.33;;
938;SDS011;456;53.584;9.968;2023-08-31T01:11:30;3.20;;;2.40;;
938;SDS011;456;53.584;9.968;2023-08-31T01:14:12;2.60;;;2.33;;
938;SDS011;456;53.584;9.968;2023-08-31T01:16:43;2.27;;;2.07;;
938;SDS011;456;53.584;9.968;2023-08-31T01:21:59;2.83;;;2.60;;
938;SDS011;456;53.584;9.968;2023-08-31T01:24:31;2.00;;;1.80;;
938;SDS011;456;53.584;9.968;2023-08-31T01:26:56;6.70;;;2.33;;
938;SDS011;456;53.584;9.968;2023-08-31T01:29:22;2.53;;;2.33;;
938;SDS011;456;53.584;9.968;2023-08-31T01:31:48;4.60;;;2.60;;
938;SDS011;456;53.584;9.968;2023-08-31T01:34:14;2.53;;;2.33;;
938;SDS011;456;53.584;9.968;2023-08-31T01:36:41;3.87;;;2.20;;
938;SDS011;456;53.584;9.968;2023-08-31T01:39:14;2.23;;;2.00;;
938;SDS011;456;53.584;9.968;2023-08-31T01:41:59;3.80;;;2.33;;
938;SDS011;456;53.584;9.968;2023-08-31T01:44:28;2.37;;;2.17;;
938;SDS011;456;53.584;9.968;2023-08-31T01:47:04;3.13;;;2.30;;
938;SDS011;456;53.584;9.968;2023-08-31T01:49:37;2.67;;;1.83;;
938;SDS011;456;53.584;9.968;2023-08-31T01:52:04;2.80;;;2.20;;
938;SDS011;456;53.584;9.968;2023-08-31T01:54:30;2.80;;;2.50;;
938;SDS011;456;53.584;9.968;2023-08-31T01:56:56;2.53;;;2.00;;
938;SDS011;456;53.584;9.968;2023-08-31T01:59:22;2.63;;;2.43;;
938;SDS011;456;53.584;9.968;2023-08-31T02:01:47;3.00;;;2.33;;
938;SDS011;456;53.584;9.968;2023-08-31T02:04:13;2.53;;;2.20;;
938;SDS011;456;53.584;9.968;2023-08-31T02:06:39;2.20;;;2.00;;
938;SDS011;456;53.584;9.968;2023-08-31T02:09:04;3.97;;;2.57;;
938;SDS011;456;53.584;9.968;2023-08-31T02:11:30;2.57;;;2.17;;
938;SDS011;456;53.584;9.968;2023-08-31T02:14:03;2.50;;;2.20;;
938;SDS011;456;53.584;9.968;2023-08-31T02:16:30;2.00;;;1.80;;
938;SDS011;456;53.584;9.968;2023-08-31T02:18:56;2.63;;;2.30;;
938;SDS011;456;53.584;9.968;2023-08-31T02:21:22;2.47;;;2.27;;
938;SDS011;456;53.584;9.968;2023-08-31T02:23:48;2.30;;;2.10;;
938;SDS011;456;53.584;9.968;2023-08-31T02:26:13;2.10;;;1.90;;
938;SDS011;456;53.584;9.968;2023-08-31T02:28:39;3.27;;;2.10;;
938;SDS011;456;53.584;9.968;2023-08-31T02:31:04;2.20;;;1.77;;
938;SDS011;456;53.584;9.968;2023-08-31T02:33:30;2.50;;;2.30;;
938;SDS011;456;53.584;9.968;2023-08-31T02:35:55;3.20;;;2.47;;
938;SDS011;456;53.584;9.968;2023-08-31T02:38:21;3.10;;;2.30;;
938;SDS011;456;53.584;9.968;2023-08-31T02:40:47;2.47;;;2.10;;
938;SDS011;456;53.584;9.968;2023-08-31T02:43:13;3.20;;;2.17;;
938;SDS011;456;53.584;9.968;2023-08-31T02:45:39;2.40;;;2.20;;
938;SDS011;456;53.584;9.968;2023-08-31T02:48:06;2.43;;;2.20;;
938;SDS011;456;53.584;9.968;2023-08-31T02:50:33;2.80;;;2.30;;
938;SDS011;456;53.584;9.968;2023-08-31T02:52:59;2.50;;;2.30;;
938;SDS011;456;53.584;9.968;2023-08-31T02:55:25;3.47;;;2.27;;
938;SDS011;456;53.584;9.968;2023-08-31T02:57:50;1.90;;;1.80;;
938;SDS011;456;53.584;9.968;2023-08-31T03:00:16;2.73;;;2.30;;
938;SDS011;456;53.584;9.968;2023-08-31T03:02:46;3.40;;;1.90;;
938;SDS011;456;53.584;9.968;2023-08-31T03:05:12;3.03;;;2.40;;
938;SDS011;456;53.584;9.968;2023-08-31T03:07:38;2.80;;;2.50;;
938;SDS011;456;53.584;9.968;2023-08-31T03:10:03;2.07;;;1.90;;
938;SDS011;456;53.584;9.968;2023-08-31T03:12:29;4.27;;;2.40;;
938;SDS011;456;53.584;9.968;2023-08-31T03:14:55;2.30;;;2.10;;
938;SDS011;456;53.584;9.968;2023-08-31T03:17:20;2.33;;;2.10;;
938;SDS011;456;53.584;9.968;2023-08-31T03:19:46;4.30;;;2.50;;
938;SDS011;456;53.584;9.968;2023-08-31T03:22:12;2.73;;;2.00;;
938;SDS011;456;53.584;9.968;2023-08-31T03:24:37;2.33;;;2.13;;
938;SDS011;456;53.584;9.968;2023-08-31T03:27:03;2.50;;;2.30;;
938;SDS011;456;53.584;9.968;2023-08-31T03:29:29;2.33;;;1.93;;
938;SDS011;456;53.584;9.968;2023-08-31T03:31:56;2.80;;;2.23;;
938;SDS011;456;53.584;9.968;2023-08-31T03:34:21;5.10;;;2.60;;
938;SDS011;456;53.584;9.968;2023-08-31T03:36:47;2.47;;;2.20;;
938;SDS011;456;53.584;9.968;2023-08-31T03:39:12;2.50;;;2.20;;
938;SDS011;456;53.584;9.968;2023-08-31T03:41:38;2.53;;;2.33;;
938;SDS011;456;53.584;9.968;2023-08-31T03:44:03;4.00;;;2.40;;
938;SDS011;456;53.584;9.968;2023-08-31T03:46:29;2.43;;;1.83;;
938;SDS011;456;53.584;9.968;2023-08-31T03:48:55;2.43;;;2.23;;
938;SDS011;456;53.584;9.968;2023-08-31T03:51:20;4.93;;;2.40;;
938;SDS011;456;53.584;9.968;2023-08-31T03:53:46;2.70;;;2.27;;
938;SDS011;456;53.584;9.968;2023-08-31T03:56:11;3.60;;;2.60;;
938;SDS011;456;53.584;9.968;2023-08-31T03:58:37;2.30;;;2.10;;
938;SDS011;456;53.584;9.968;2023-08-31T04:01:03;2.00;;;1.90;;
938;SDS011;456;53.584;9.968;2023-08-31T04:03:30;2.83;;;2.13;;
938;SDS011;456;53.584;9.968;2023-08-31T04:05:56;1.70;;;1.60;;
938;SDS011;456;53.584;9.968;2023-08-31T04:08:21;2.10;;;1.90;;
938;SDS011;456;53.584;9.968;2023-08-31T04:10:47;5.23;;;2.53;;
938;SDS011;456;53.584;9.968;2023-08-31T04:13:13;2.40;;;2.20;;
938;SDS011;456;53.584;9.968;2023-08-31T04:15:38;2.90;;;2.60;;
938;SDS011;456;53.584;9.968;2023-08-31T04:18:04;1.77;;;1.57;;
938;SDS011;456;53.584;9.968;2023-08-31T04:20:30;3.93;;;1.80;;
938;SDS011;456;53.584;9.968;2023-08-31T04:22:58;2.77;;;2.20;;
938;SDS011;456;53.584;9.968;2023-08-31T04:25:23;2.80;;;1.93;;
938;SDS011;456;53.584;9.968;2023-08-31T04:27:49;2.67;;;2.07;;
938;SDS011;456;53.584;9.968;2023-08-31T04:30:14;2.30;;;2.10;;
938;SDS011;456;53.584;9.968;2023-08-31T04:32:40;2.53;;;2.13;;
938;SDS011;456;53.584;9.968;2023-08-31T04:35:07;2.33;;;2.00;;
938;SDS011;456;53.584;9.968;2023-08-31T04:37:33;2.63;;;2.43;;
938;SDS011;456;53.584;9.968;2023-08-31T04:39:58;2.60;;;2.20;;
938;SDS011;456;53.584;9.968;2023-08-31T04:42:24;3.00;;;2.70;;
938;SDS011;456;53.584;9.968;2023-08-31T04:44:50;2.87;;;2.43;;
938;SDS011;456;53.584;9.968;2023-08-31T04:47:15;2.30;;;2.10;;
938;SDS011;456;53.584;9.968;2023-08-31T04:49:41;2.47;;;2.20;;
938;SDS011;456;53.584;9.968;2023-08-31T04:52:07;2.70;;;1.90;;
938;SDS011;456;53.584;9.968;2023-08-31T04:54:33;2.70;;;2.27;;
938;SDS011;456;53.584;9.968;2023-08-31T04:56:59;2.70;;;2.07;;
938;SDS011;456;53.584;9.968;2023-08-31T04:59:24;2.40;;;2.00;;
938;SDS011;456;53.584;9.968;2023-08-31T05:01:50;3.50;;;2.00;;
938;SDS011;456;53.584;9.968;2023-08-31T05:04:15;3.50;;;2.50;;
938;SDS011;456;53.584;9.968;2023-08-31T05:06:41;2.07;;;1.90;;
938;SDS011;456;53.584;9.968;2023-08-31T05:09:07;3.80;;;2.27;;
938;SDS011;456;53.584;9.968;2023-08-31T05:11:33;2.63;;;2.43;;
938;SDS011;456;53.584;9.968;2023-08-31T05:13:58;3.03;;;2.73;;
938;SDS011;456;53.584;9.968;2023-08-31T05:16:24;3.30;;;2.27;;
938;SDS011;456;53.584;9.968;2023-08-31T05:18:49;4.63;;;2.00;;
938;SDS011;456;53.584;9.968;2023-08-31T05:21:15;3.90;;;2.57;;
938;SDS011;456;53.584;9.968;2023-08-31T05:23:40;5.13;;;2.70;;
938;SDS011;456;53.584;9.968;2023-08-31T05:26:06;2.73;;;2.20;;
938;SDS011;456;53.584;9.968;2023-08-31T05:28:32;2.60;;;2.40;;
938;SDS011;456;53.584;9.968;2023-08-31T05:30:59;3.00;;;2.50;;
938;SDS011;456;53.584;9.968;2023-08-31T05:33:26;3.40;;;2.43;;
938;SDS011;456;53.584;9.968;2023-08-31T05:35:53;2.77;;;2.37;;
938;SDS011;456;53.584;9.968;2023-08-31T05:38:20;2.50;;;2.30;;
938;SDS011;456;53.584;9.968;2023-08-31T05:40:45;5.17;;;2.50;;
938;SDS011;456;53.584;9.968;2023-08-31T05:43:12;2.50;;;2.30;;
938;SDS011;456;53.584;9.968;2023-08-31T05:45:38;2.53;;;2.33;;
938;SDS011;456;53.584;9.968;2023-08-31T05:48:04;4.20;;;2.80;;
938;SDS011;456;53.584;9.968;2023-08-31T05:50:30;3.60;;;2.50;;
938;SDS011;456;53.584;9.968;2023-08-31T05:52:55;2.80;;;2.47;;
938;SDS011;456;53.584;9.968;2023-08-31T05:55:21;2.87;;;2.57;;
938;SDS011;456;53.584;9.968;2023-08-31T05:57:47;2.57;;;2.10;;
938;SDS011;456;53.584;9.968;2023-08-31T06:00:13;3.83;;;2.20;;
938;SDS011;456;53.584;9.968;2023-08-31T06:02:39;3.03;;;2.30;;
938;SDS011;456;53.584;9.968;2023-08-31T06:05:04;2.50;;;2.30;;
938;SDS011;456;53.584;9.968;2023-08-31T06:07:31;2.70;;;2.50;;
938;SDS011;456;53.584;9.968;2023-08-31T06:09:56;3.70;;;2.40;;
938;SDS011;456;53.584;9.968;2023-08-31T06:12:22;4.77;;;2.50;;
938;SDS011;456;53.584;9.968;2023-08-31T06:14:48;2.43;;;2.20;;
938;SDS011;456;53.584;9.968;2023-08-31T06:17:13;2.97;;;2.47;;
938;SDS011;456;53.584;9.968;2023-08-31T06:19:40;3.47;;;2.63;;
938;SDS011;456;53.584;9.968;2023-08-31T06:22:06;3.60;;;2.50;;
938;SDS011;456;53.584;9.968;2023-08-31T06:24:32;3.30;;;2.70;;
938;SDS011;456;53.584;9.968;2023-08-31T06:26:58;3.10;;;2.23;;
938;SDS011;456;53.584;9.968;2023-08-31T06:29:23;3.70;;;2.40;;
938;SDS011;456;53.584;9.968;2023-08-31T06:31:49;4.30;;;2.20;;
938;SDS011;456;53.584;9.968;2023-08-31T06:34:14;2.87;;;2.33;;
938;SDS011;456;53.584;9.968;2023-08-31T06:36:40;2.37;;;2.17;;
938;SDS011;456;53.584;9.968;2023-08-31T06:39:06;2.20;;;2.10;;
938;SDS011;456;53.584;9.968;2023-08-31T06:41:31;2.83;;;2.23;;
938;SDS011;456;53.584;9.968;2023-08-31T06:43:57;3.00;;;2.43;;
938;SDS011;456;53.584;9.968;2023-08-31T06:46:23;3.63;;;2.47;;
938;SDS011;456;53.584;9.968;2023-08-31T06:48:48;4.20;;;2.63;;
938;SDS011;456;53.584;9.968;2023-08-31T06:51:14;2.90;;;2.60;;
938;SDS011;456;53.584;9.968;2023-08-31T06:53:41;4.90;;;2.70;;
938;SDS011;456;53.584;9.968;2023-08-31T06:56:08;2.30;;;2.10;;
938;SDS011;456;53.584;9.968;2023-08-31T06:58:34;2.40;;;2.20;;
938;SDS011;456;53.584;9.968;2023-08-31T07:01:00;2.33;;;2.13;;
938;SDS011;456;53.584;9.968;2023-08-31T07:03:26;3.00;;;2.37;;
938;SDS011;456;53.584;9.968;2023-08-31T07:05:51;2.70;;;2.50;;
938;SDS011;456;53.584;9.968;2023-08-31T07:08:17;4.53;;;2.27;;
938;SDS011;456;53.584;9.968;2023-08-31T07:10:43;2.63;;;2.27;;
938;SDS011;456;53.584;9.968;2023-08-31T07:13:08;3.87;;;2.57;;
938;SDS011;456;53.584;9.968;2023-08-31T07:15:34;3.03;;;2.57;;
938;SDS011;456;53.584;9.968;2023-08-31T07:18:00;2.77;;;2.20;;
938;SDS011;456;53.584;9.968;2023-08-31T07:20:26;2.53;;;2.33;;
938;SDS011;456;53.584;9.968;2023-08-31T07:22:52;4.33;;;3.23;;
938;SDS011;456;53.584;9.968;2023-08-31T07:25:17;2.30;;;2.10;;
938;SDS011;456;53.584;9.968;2023-08-31T07:27:43;3.40;;;2.37;;
938;SDS011;456;53.584;9.968;2023-08-31T07:30:09;3.00;;;2.60;;
938;SDS011;456;53.584;9.968;2023-08-31T07:32:35;2.40;;;2.20;;
938;SDS011;456;53.584;9.968;2023-08-31T07:35:01;2.67;;;2.33;;
938;SDS011;456;53.584;9.968;2023-08-31T07:37:28;3.07;;;2.47;;
938;SDS011;456;53.584;9.968;2023-08-31T07:39:54;2.40;;;2.20;;
938;SDS011;456;53.584;9.968;2023-08-31T07:42:19;2.83;;;2.53;;
938;SDS011;456;53.584;9.968;2023-08-31T07:44:45;2.93;;;2.50;;
938;SDS011;456;53.584;9.968;2023-08-31T07:47:10;2.60;;;2.40;;
938;SDS011;456;53.584;9.968;2023-08-31T07:49:36;4.10;;;2.50;;
938;SDS011;456;53.584;9.968;2023-08-31T07:52:01;3.20;;;2.20;;
938;SDS011;456;53.584;9.968;2023-08-31T07:54:28;3.77;;;2.30;;
938;SDS011;456;53.584;9.968;2023-08-31T07:56:53;5.27;;;2.70;;
938;SDS011;456;53.584;9.968;2023-08-31T07:59:19;2.87;;;2.50;;
938;SDS011;456;53.584;9.968;2023-08-31T08:01:45;4.40;;;2.27;;
938;SDS011;456;53.584;9.968;2023-08-31T08:04:11;2.00;;;1.60;;
938;SDS011;456;53.584;9.968;2023-08-31T08:06:36;2.23;;;2.10;;
938;SDS011;456;53.584;9.968;2023-08-31T08:09:02;2.10;;;1.87;;
938;SDS011;456;53.584;9.968;2023-08-31T08:11:29;2.30;;;2.10;;
938;SDS011;456;53.584;9.968;2023-08-31T08:13:55;2.50;;;2.07;;
938;SDS011;456;53.584;9.968;2023-08-31T08:16:21;2.20;;;2.00;;
938;SDS011;456;53.584;9.968;2023-08-31T08:18:46;2.27;;;2.03;;
938;SDS011;456;53.584;9.968;2023-08-31T08:21:12;2.20;;;1.80;;
938;SDS011;456;53.584;9.968;2023-08-31T08:23:37;2.90;;;2.13;;
938;SDS011;456;53.584;9.968;2023-08-31T08:26:03;2.80;;;1.70;;
938;SDS011;456;53.584;9.968;2023-08-31T08:28:28;2.67;;;2.40;;
938;SDS011;456;53.584;9.968;2023-08-31T08:30:54;4.63;;;2.20;;
938;SDS011;456;53.584;9.968;2023-08-31T08:33:19;3.90;;;1.80;;
938;SDS011;456;53.584;9.968;2023-08-31T08:35:45;3.53;;;1.60;;
938;SDS011;456;53.584;9.968;2023-08-31T08:38:11;2.30;;;2.10;;
938;SDS011;456;53.584;9.968;2023-08-31T08:40:37;1.90;;;1.80;;
938;SDS011;456;53.584;9.968;2023-08-31T08:43:04;2.27;;;2.00;;
938;SDS011;456;53.584;9.968;2023-08-31T08:45:35;1.83;;;1.70;;
938;SDS011;456;53.584;9.968;2023-08-31T08:48:06;2.90;;;1.90;;
938;SDS011;456;53.584;9.968;2023-08-31T08:50:33;1.97;;;1.80;;
938;SDS011;456;53.584;9.968;2023-08-31T08:53:03;2.00;;;1.80;;
938;SDS011;456;53.584;9.968;2023-08-31T08:55:29;1.73;;;1.63;;
938;SDS011;456;53.584;9.968;2023-08-31T08:57:55;2.40;;;2.00;;
938;SDS011;456;53.584;9.968;2023-08-31T09:00:22;2.20;;;1.70;;
938;SDS011;456;53.584;9.968;2023-08-31T09:02:48;1.83;;;1.73;;
938;SDS011;456;53.584;9.968;2023-08-31T09:05:13;2.30;;;2.10;;
938;SDS011;456;53.584;9.968;2023-08-31T09:07:59;1.93;;;1.73;;
938;SDS011;456;53.584;9.968;2023-08-31T09:10:38;2.10;;;1.60;;
938;SDS011;456;53.584;9.968;2023-08-31T09:13:09;4.03;;;1.97;;
938;SDS011;456;53.584;9.968;2023-08-31T09:15:42;3.53;;;2.20;;
938;SDS011;456;53.584;9.968;2023-08-31T09:18:25;2.20;;;2.00;;
938;SDS011;456;53.584;9.968;2023-08-31T09:20:56;2.30;;;1.93;;
938;SDS011;456;53.584;9.968;2023-08-31T09:23:22;2.93;;;2.20;;
938;SDS011;456;53.584;9.968;2023-08-31T09:25:49;3.03;;;2.03;;
938;SDS011;456;53.584;9.968;2023-08-31T09:28:22;1.50;;;1.40;;
938;SDS011;456;53.584;9.968;2023-08-31T09:30:51;2.23;;;1.90;;
938;SDS011;456;53.584;9.968;2023-08-31T09:33:18;2.53;;;2.20;;
938;SDS011;456;53.584;9.968;2023-08-31T09:35:51;2.40;;;2.07;;
938;SDS011;456;53.584;9.968;2023-08-31T09:38:19;1.60;;;1.50;;
938;SDS011;456;53.584;9.968;2023-08-31T09:40:44;1.90;;;1.80;;
938;SDS011;456;53.584;9.968;2023-08-31T09:43:10;1.80;;;1.57;;
938;SDS011;456;53.584;9.968;2023-08-31T09:45:36;1.83;;;1.70;;
938;SDS011;456;53.584;9.968;2023-08-31T09:48:03;2.80;;;1.90;;
938;SDS011;456;53.584;9.968;2023-08-31T09:50:30;2.03;;;1.83;;
938;SDS011;456;53.584;9.968;2023-08-31T09:53:03;2.00;;;1.77;;
938;SDS011;456;53.584;9.968;2023-08-31T09:55:30;1.60;;;1.50;;
938;SDS011;456;53.584;9.968;2023-08-31T09:57:57;1.70;;;1.60;;
938;SDS011;456;53.584;9.968;2023-08-31T10:00:28;2.10;;;1.90;;
938;SDS011;456;53.584;9.968;2023-08-31T10:03:02;2.67;;;1.50;;
938;SDS011;456;53.584;9.968;2023-08-31T10:05:30;2.50;;;1.67;;
938;SDS011;456;53.584;9.968;2023-08-31T10:07:59;2.10;;;1.90;;
938;SDS011;456;53.584;9.968;2023-08-31T10:10:26;2.23;;;1.70;;
938;SDS011;456;53.584;9.968;2023-08-31T10:12:53;1.77;;;1.47;;
938;SDS011;456;53.584;9.968;2023-08-31T10:15:20;2.00;;;1.80;;
938;SDS011;456;53.584;9.968;2023-08-31T10:17:46;2.03;;;1.73;;
938;SDS011;456;53.584;9.968;2023-08-31T10:20:12;2.73;;;1.60;;
938;SDS011;456;53.584;9.968;2023-08-31T10:22:41;2.30;;;1.70;;
938;SDS011;456;53.584;9.968;2023-08-31T10:25:07;3.57;;;1.97;;
938;SDS011;456;53.584;9.968;2023-08-31T10:27:37;1.73;;;1.63;;
938;SDS011;456;53.584;9.968;2023-08-31T10:30:46;1.90;;;1.80;;
938;SDS011;456;53.584;9.968;2023-08-31T10:35:54;1.80;;;1.70;;
938;SDS011;456;53.584;9.968;2023-08-31T10:38:28;1.90;;;1.80;;
938;SDS011;456;53.584;9.968;2023-08-31T10:51:37;2.10;;;1.90;;
938;SDS011;456;53.584;9.968;2023-08-31T10:59:22;2.53;;;2.17;;
938;SDS011;456;53.584;9.968;2023-08-31T11:01:50;2.70;;;2.50;;
938;SDS011;456;53.584;9.968;2023-08-31T11:04:28;2.70;;;2.50;;
938;SDS011;456;53.584;9.968;2023-08-31T11:07:13;2.20;;;1.80;;
938;SDS011;456;53.584;9.968;2023-08-31T11:09:43;2.10;;;1.93;;
938;SDS011;456;53.584;9.968;2023-08-31T11:12:09;3.57;;;2.40;;
938;SDS011;456;53.584;9.968;2023-08-31T11:14:35;2.73;;;2.53;;
938;SDS011;456;53.584;9.968;2023-08-31T11:17:01;2.20;;;2.00;;
938;SDS011;456;53.584;9.968;2023-08-31T11:19:29;2.80;;;2.60;;
938;SDS011;456;53.584;9.968;2023-08-31T11:21:56;3.30;;;3.00;;
938;SDS011;456;53.584;9.968;2023-08-31T11:24:22;2.50;;;2.30;;
938;SDS011;456;53.584;9.968;2023-08-31T11:26:49;2.43;;;2.23;;
938;SDS011;456;53.584;9.968;2023-08-31T11:29:21;2.60;;;2.40;;
938;SDS011;456;53.584;9.968;2023-08-31T11:31:46;2.20;;;2.10;;
938;SDS011;456;53.584;9.968;2023-08-31T11:34:12;2.90;;;2.60;;
938;SDS011;456;53.584;9.968;2023-08-31T11:36:39;2.70;;;2.50;;
938;SDS011;456;53.584;9.968;2023-08-31T11:39:11;2.40;;;2.13;;
938;SDS011;456;53.584;9.968;2023-08-31T11:41:39;2.50;;;2.30;;
938;SDS011;456;53.584;9.968;2023-08-31T11:44:11;2.80;;;2.60;;
938;SDS011;456;53.584;9.968;2023-08-31T11:46:38;2.37;;;2.17;;
938;SDS011;456;53.584;9.968;2023-08-31T11:49:06;3.00;;;2.70;;
938;SDS011;456;53.584;9.968;2023-08-31T11:51:33;2.07;;;1.87;;
938;SDS011;456;53.584;9.968;2023-08-31T11:54:02;2.07;;;1.97;;
938;SDS011;456;53.584;9.968;2023-08-31T11:56:45;2.50;;;2.30;;
938;SDS011;456;53.584;9.968;2023-08-31T11:59:15;2.83;;;2.50;;
938;SDS011;456;53.584;9.968;2023-08-31T12:01:45;2.00;;;1.90;;
938;SDS011;456;53.584;9.968;2023-08-31T12:04:15;2.30;;;2.10;;
938;SDS011;456;53.584;9.968;2023-08-31T12:06:47;3.07;;;2.40;;
938;SDS011;456;53.584;9.968;2023-08-31T12:09:14;2.00;;;1.80;;
938;SDS011;456;53.584;9.968;2023-08-31T12:11:40;1.60;;;1.50;;
938;SDS011;456;53.584;9.968;2023-08-31T12:14:18;1.63;;;1.40;;
938;SDS011;456;53.584;9.968;2023-08-31T12:16:44;1.90;;;1.80;;
938;SDS011;456;53.584;9.968;2023-08-31T12:19:10;2.30;;;1.80;;
938;SDS011;456;53.584;9.968;2023-08-31T12:21:36;1.73;;;1.60;;
938;SDS011;456;53.584;9.968;2023-08-31T12:24:01;2.90;;;2.00;;
938;SDS011;456;53.584;9.968;2023-08-31T12:26:28;3.73;;;1.70;;
938;SDS011;456;53.584;9.968;2023-08-31T12:28:54;2.20;;;2.10;;
938;SDS011;456;53.584;9.968;2023-08-31T12:31:20;2.07;;;1.73;;
938;SDS011;456;53.584;9.968;2023-08-31T12:33:47;2.03;;;1.57;;
938;SDS011;456;53.584;9.968;2023-08-31T12:36:12;2.30;;;1.53;;
938;SDS011;456;53.584;9.968;2023-08-31T12:38:38;1.90;;;1.70;;
938;SDS011;456;53.584;9.968;2023-08-31T12:41:04;2.30;;;1.57;;
938;SDS011;456;53.584;9.968;2023-08-31T12:43:29;1.70;;;1.60;;
938;SDS011;456;53.584;9.968;2023-08-31T12:45:56;2.60;;;1.50;;
938;SDS011;456;53.584;9.968;2023-08-31T12:48:22;1.30;;;1.20;;
938;SDS011;456;53.584;9.968;2023-08-31T12:50:47;1.50;;;1.40;;
938;SDS011;456;53.584;9.968;2023-08-31T12:53:13;1.50;;;1.40;;
938;SDS011;456;53.584;9.968;2023-08-31T12:55:39;1.90;;;1.40;;
938;SDS011;456;53.584;9.968;2023-08-31T12:58:05;1.27;;;1.17;;
938;SDS011;456;53.584;9.968;2023-08-31T13:00:31;1.50;;;1.40;;
938;SDS011;456;53.584;9.968;2023-08-31T13:02:57;1.53;;;1.43;;
938;SDS011;456;53.584;9.968;2023-08-31T13:05:22;1.63;;;1.53;;
938;SDS011;456;53.584;9.968;2023-08-31T13:07:48;2.07;;;1.43;;
938;SDS011;456;53.584;9.968;2023-08-31T13:10:14;1.77;;;1.50;;
938;SDS011;456;53.584;9.968;2023-08-31T13:12:39;4.27;;;1.90;;
938;SDS011;456;53.584;9.968;2023-08-31T13:15:05;4.33;;;1.47;;
938;SDS011;456;53.584;9.968;2023-08-31T13:17:33;2.67;;;1.20;;
938;SDS011;456;53.584;9.968;2023-08-31T13:19:58;1.57;;;1.47;;
938;SDS011;456;53.584;9.968;2023-08-31T13:22:24;3.13;;;1.80;;
938;SDS011;456;53.584;9.968;2023-08-31T13:24:50;2.13;;;1.80;;
938;SDS011;456;53.584;9.968;2023-08-31T13:27:16;1.33;;;1.23;;
938;SDS011;456;53.584;9.968;2023-08-31T13:29:43;1.90;;;1.57;;
938;SDS011;456;53.584;9.968;2023-08-31T13:32:09;1.23;;;1.13;;
938;SDS011;456;53.584;9.968;2023-08-31T13:34:35;1.53;;;1.43;;
938;SDS011;456;53.584;9.968;2023-08-31T13:37:02;1.80;;;1.40;;
938;SDS011;456;53.584;9.968;2023-08-31T13:39:28;1.97;;;1.40;;
938;SDS011;456;53.584;9.968;2023-08-31T13:41:55;1.30;;;1.00;;
938;SDS011;456;53.584;9.968;2023-08-31T13:44:20;1.43;;;1.00;;
938;SDS011;456;53.584;9.968;2023-08-31T13:46:49;1.43;;;1.30;;
938;SDS011;456;53.584;9.968;2023-08-31T13:49:15;1.40;;;1.30;;
938;SDS011;456;53.584;9.968;2023-08-31T13:51:41;0.93;;;0.83;;
938;SDS011;456;53.584;9.968;2023-08-31T13:54:07;1.43;;;0.83;;
938;SDS011;456;53.584;9.968;2023-08-31T13:56:35;1.90;;;1.20;;
938;SDS011;456;53.584;9.968;2023-08-31T13:59:01;1.43;;;1.10;;
938;SDS011;456;53.584;9.968;2023-08-31T14:01:27;1.57;;;0.90;;
938;SDS011;456;53.584;9.968;2023-08-31T14:03:53;1.90;;;1.17;;
938;SDS011;456;53.584;9.968;2023-08-31T14:06:18;1.83;;;1.17;;
938;SDS011;456;53.584;9.968;2023-08-31T14:08:44;2.13;;;1.20;;
938;SDS011;456;53.584;9.968;2023-08-31T14:11:10;1.97;;;1.30;;
938;SDS011;456;53.584;9.968;2023-08-31T14:13:36;2.33;;;1.17;;
938;SDS011;456;53.584;9.968;2023-08-31T14:16:01;1.10;;;1.00;;
938;SDS011;456;53.584;9.968;2023-08-31T14:18:28;1.77;;;1.10;;
938;SDS011;456;53.584;9.968;2023-08-31T14:20:55;1.57;;;0.90;;
938;SDS011;456;53.584;9.968;2023-08-31T14:23:23;1.50;;;1.20;;
938;SDS011;456;53.584;9.968;2023-08-31T14:25:48;2.33;;;1.00;;
938;SDS011;456;53.584;9.968;2023-08-31T14:28:14;1.40;;;1.00;;
938;SDS011;456;53.584;9.968;2023-08-31T14:30:39;0.93;;;0.70;;
938;SDS011;456;53.584;9.968;2023-08-31T14:33:05;1.60;;;1.00;;
938;SDS011;456;53.584;9.968;2023-08-31T14:35:31;2.23;;;1.50;;
938;SDS011;456;53.584;9.968;2023-08-31T14:37:57;1.30;;;0.87;;
938;SDS011;456;53.584;9.968;2023-08-31T14:40:26;2.07;;;1.20;;
938;SDS011;456;53.584;9.968;2023-08-31T14:42:51;0.80;;;0.70;;
938;SDS011;456;53.584;9.968;2023-08-31T14:45:17;1.97;;;1.17;;
938;SDS011;456;53.584;9.968;2023-08-31T14:47:42;1.23;;;0.90;;
938;SDS011;456;53.584;9.968;2023-08-31T14:50:08;0.90;;;0.80;;
938;SDS011;456;53.584;9.968;2023-08-31T14:52:34;0.97;;;0.70;;
938;SDS011;456;53.584;9.968;2023-08-31T14:54:59;1.10;;;0.93;;
938;SDS011;456;53.584;9.968;2023-08-31T14:57:25;1.20;;;1.10;;
938;SDS011;456;53.584;9.968;2023-08-31T14:59:51;1.07;;;0.97;;
938;SDS011;456;53.584;9.968;2023-08-31T15:02:19;1.23;;;0.70;;
938;SDS011;456;53.584;9.968;2023-08-31T15:04:47;1.40;;;0.90;;
938;SDS011;456;53.584;9.968;2023-08-31T15:07:14;1.20;;;1.00;;
938;SDS011;456;53.584;9.968;2023-08-31T15:09:40;1.53;;;1.07;;
938;SDS011;456;53.584;9.968;2023-08-31T15:12:07;1.20;;;0.70;;
938;SDS011;456;53.584;9.968;2023-08-31T15:14:32;1.30;;;1.00;;
938;SDS011;456;53.584;9.968;2023-08-31T15:16:58;1.70;;;1.10;;
938;SDS011;456;53.584;9.968;2023-08-31T15:19:23;1.70;;;1.00;;
938;SDS011;456;53.584;9.968;2023-08-31T15:21:49;1.17;;;0.93;;
938;SDS011;456;53.584;9.968;2023-08-31T15:24:15;1.27;;;1.07;;
938;SDS011;456;53.584;9.968;2023-08-31T15:26:40;1.13;;;1.03;;
938;SDS011;456;53.584;9.968;2023-08-31T15:29:06;2.10;;;0.90;;
938;SDS011;456;53.584;9.968;2023-08-31T15:31:31;1.07;;;0.90;;
938;SDS011;456;53.584;9.968;2023-08-31T15:33:57;2.03;;;0.93;;
938;SDS011;456;53.584;9.968;2023-08-31T15:36:22;1.90;;;1.27;;
938;SDS011;456;53.584;9.968;2023-08-31T15:38:48;1.40;;;0.80;;
938;SDS011;456;53.584;9.968;2023-08-31T15:41:14;1.00;;;0.87;;
938;SDS011;456;53.584;9.968;2023-08-31T15:43:40;1.33;;;1.00;;
938;SDS011;456;53.584;9.968;2023-08-31T15:46:07;1.77;;;0.90;;
938;SDS011;456;53.584;9.968;2023-08-31T15:48:33;1.00;;;0.77;;
938;SDS011;456;53.584;9.968;2023-08-31T15:50:59;0.90;;;0.70;;
938;SDS011;456;53.584;9.968;2023-08-31T15:53:24;0.90;;;0.70;;
938;SDS011;456;53.584;9.968;2023-08-31T15:55:52;0.80;;;0.70;;
938;SDS011;456;53.584;9.968;2023-08-31T15:58:18;1.00;;;0.83;;
938;SDS011;456;53.584;9.968;2023-08-31T16:00:45;1.13;;;1.03;;
938;SDS011;456;53.584;9.968;2023-08-31T16:03:11;1.47;;;0.87;;
938;SDS011;456;53.584;9.968;2023-08-31T16:05:36;1.00;;;0.90;;